createdAt,value
2022-10-03T00:03:03.840Z,1.90
2022-10-03T00:08:10.268Z,1.80
2022-10-03T00:13:12.059Z,2.47
2022-10-03T00:18:22.872Z,1.83
2022-10-03T00:23:45.736Z,2.08
2022-10-03T00:29:03.254Z,1.80
2022-10-03T00:34:27.305Z,2.00
2022-10-03T00:39:57.147Z,1.50
2022-10-03T00:45:27.876Z,1.70
2022-10-03T00:50:47.288Z,2.13
2022-10-03T00:56:31.476Z,2.13
2022-10-03T01:01:46.546Z,1.83
2022-10-03T01:06:45.462Z,1.70
2022-10-03T01:12:13.934Z,1.63
2022-10-03T01:17:14.773Z,2.00
2022-10-03T01:22:13.573Z,1.48
2022-10-03T01:27:15.157Z,1.80
2022-10-03T01:32:22.914Z,1.45
2022-10-03T01:38:14.032Z,1.60
2022-10-03T01:43:35.576Z,1.92
2022-10-03T01:48:52.454Z,1.60
2022-10-03T01:54:09.878Z,1.30
2022-10-03T01:59:19.092Z,1.13
2022-10-03T02:04:36.981Z,1.25
2022-10-03T02:09:51.931Z,1.40
2022-10-03T02:15:00.156Z,1.30
2022-10-03T02:20:08.811Z,1.63
2022-10-03T02:25:41.460Z,1.70
2022-10-03T02:30:52.437Z,1.55
2022-10-03T02:36:00.130Z,1.40
2022-10-03T02:41:34.901Z,1.50
2022-10-03T02:46:32.853Z,2.42
2022-10-03T02:51:31.084Z,1.40
2022-10-03T02:56:34.229Z,1.42
2022-10-03T03:01:43.202Z,1.30
2022-10-03T03:06:54.738Z,1.70
2022-10-03T03:12:08.633Z,1.30
2022-10-03T03:17:14.739Z,1.40
2022-10-03T03:22:15.059Z,1.30
2022-10-03T03:27:33.995Z,1.73
2022-10-03T03:32:50.577Z,1.55
2022-10-03T03:38:01.950Z,1.30
2022-10-03T03:43:09.240Z,1.50
2022-10-03T03:48:22.548Z,1.30
2022-10-03T03:58:40.648Z,1.50
2022-10-03T04:03:52.628Z,1.33
2022-10-03T04:09:29.345Z,1.35
2022-10-03T04:14:40.532Z,1.45
2022-10-03T04:19:52.358Z,1.08
2022-10-03T04:25:23.817Z,1.60
2022-10-03T04:30:40.347Z,1.35
2022-10-03T04:36:04.727Z,1.30
2022-10-03T04:41:24.247Z,1.20
2022-10-03T04:46:28.029Z,1.10
2022-10-03T04:51:36.212Z,1.40
2022-10-03T04:56:42.463Z,1.48
2022-10-03T05:02:02.301Z,1.20
2022-10-03T05:07:24.692Z,1.30
2022-10-03T05:12:48.635Z,1.33
2022-10-03T05:17:51.381Z,1.38
2022-10-03T05:22:46.900Z,1.40
2022-10-03T05:27:50.722Z,1.60
2022-10-03T05:33:32.478Z,1.98
2022-10-03T05:39:03.539Z,1.52
2022-10-03T05:44:05.971Z,2.30
2022-10-03T05:49:36.091Z,2.45
2022-10-03T05:54:58.388Z,3.10
2022-10-03T06:00:25.921Z,2.00
2022-10-03T06:05:36.342Z,2.15
2022-10-03T06:10:39.498Z,2.40
2022-10-03T06:20:42.002Z,1.85
2022-10-03T06:25:41.241Z,2.90
2022-10-03T06:30:47.390Z,2.30
2022-10-03T06:36:03.796Z,1.95
2022-10-03T06:41:08.885Z,2.55
2022-10-03T06:46:17.483Z,1.80
2022-10-03T06:51:55.834Z,1.92
2022-10-03T06:57:19.987Z,1.80
2022-10-03T07:02:19.491Z,1.60
2022-10-03T07:07:41.341Z,2.10
2022-10-03T07:12:43.972Z,1.83
2022-10-03T07:17:48.937Z,2.08
2022-10-03T07:23:19.180Z,1.80
2022-10-03T07:28:46.249Z,2.00
2022-10-03T07:33:50.072Z,2.60
2022-10-03T07:39:01.333Z,2.97
2022-10-03T07:44:18.783Z,2.55
2022-10-03T07:49:48.266Z,2.92
2022-10-03T07:54:44.666Z,2.70
2022-10-03T08:00:23.635Z,2.70
2022-10-03T08:05:16.445Z,2.63
2022-10-03T08:10:49.916Z,2.45
2022-10-03T08:16:20.234Z,2.28
2022-10-03T08:21:51.392Z,2.50
2022-10-03T08:26:53.595Z,2.70
2022-10-03T08:32:07.841Z,2.30
2022-10-03T08:37:22.175Z,4.47
2022-10-03T08:42:36.157Z,3.97
2022-10-03T08:47:52.180Z,4.00
2022-10-03T08:52:51.303Z,3.58
2022-10-03T08:58:06.915Z,3.83
2022-10-03T09:03:40.611Z,3.90
2022-10-03T09:08:57.949Z,3.53
2022-10-03T09:14:27.959Z,3.47
2022-10-03T09:19:46.618Z,4.13
2022-10-03T09:25:15.099Z,3.30
2022-10-03T09:30:46.918Z,2.92
2022-10-03T09:35:52.742Z,3.80
2022-10-03T09:41:01.096Z,2.95
2022-10-03T09:45:54.307Z,3.60
2022-10-03T09:51:29.979Z,3.28
2022-10-03T09:56:30.107Z,2.78
2022-10-03T10:01:53.282Z,3.10
2022-10-03T10:12:21.839Z,2.83
2022-10-03T10:17:53.977Z,2.92
2022-10-03T10:23:08.143Z,3.72
2022-10-03T10:28:18.586Z,2.95
2022-10-03T10:33:53.420Z,3.10
2022-10-03T10:39:14.451Z,2.53
2022-10-03T10:44:29.085Z,3.10
2022-10-03T10:50:02.536Z,3.70
2022-10-03T11:00:18.524Z,3.35
2022-10-03T11:05:49.165Z,3.00
2022-10-03T11:11:19.749Z,3.78
2022-10-03T11:16:54.552Z,2.60
2022-10-03T11:22:09.749Z,2.83
2022-10-03T11:27:22.573Z,2.33
2022-10-03T11:32:33.828Z,3.03
2022-10-03T11:37:41.840Z,2.90
2022-10-03T11:42:51.591Z,2.15
2022-10-03T11:48:14.038Z,2.88
2022-10-03T12:03:14.392Z,2.22
2022-10-03T12:08:47.034Z,2.85
2022-10-03T12:14:11.610Z,1.80
2022-10-03T12:28:26.579Z,2.22
2022-10-03T12:33:43.766Z,2.90
2022-10-03T12:38:42.709Z,1.88
2022-10-03T12:43:56.826Z,2.45
2022-10-03T12:48:55.157Z,2.10
2022-10-03T12:54:30.237Z,2.15
2022-10-03T13:00:11.042Z,2.15
2022-10-03T13:05:19.820Z,2.40
2022-10-03T13:10:31.337Z,2.42
2022-10-03T13:15:54.075Z,2.28
2022-10-03T13:21:40.701Z,1.92
2022-10-03T13:27:02.384Z,2.00
2022-10-03T13:32:16.748Z,2.33
2022-10-03T13:38:04.762Z,3.00
2022-10-03T13:43:03.647Z,3.03
2022-10-03T13:48:14.413Z,2.55
2022-10-03T13:53:41.266Z,3.17
2022-10-03T13:59:27.829Z,3.05
2022-10-03T14:04:26.900Z,2.50
2022-10-03T14:09:34.771Z,2.40
2022-10-03T14:15:16.245Z,2.65
2022-10-03T14:21:06.005Z,2.30
2022-10-03T14:26:02.806Z,4.15
2022-10-03T14:31:15.606Z,2.58
2022-10-03T14:36:16.920Z,1.90
2022-10-03T14:41:37.816Z,2.90
2022-10-03T14:46:55.580Z,2.47
2022-10-03T14:52:00.802Z,1.70
2022-10-03T14:57:15.125Z,2.22
2022-10-03T15:02:33.999Z,2.03
2022-10-03T15:07:40.154Z,2.97
2022-10-03T15:12:38.838Z,2.35
2022-10-03T15:17:39.265Z,2.20
2022-10-03T15:22:42.619Z,3.35
2022-10-03T15:27:42.303Z,3.30
2022-10-03T15:32:48.212Z,3.30
2022-10-03T15:38:11.321Z,3.47
2022-10-03T15:43:41.218Z,3.40
2022-10-03T15:48:35.126Z,3.30
2022-10-03T15:53:37.759Z,3.53
2022-10-03T15:58:37.653Z,3.83
2022-10-03T16:03:49.912Z,3.10
2022-10-03T16:09:03.685Z,3.60
2022-10-03T16:14:28.686Z,3.80
2022-10-03T16:19:31.199Z,2.95
2022-10-03T16:24:36.211Z,3.60
2022-10-03T16:29:40.840Z,3.67
2022-10-03T16:34:37.306Z,2.60
2022-10-03T16:39:38.781Z,3.17
2022-10-03T16:44:31.780Z,2.85
2022-10-03T16:50:02.805Z,2.60
2022-10-03T16:55:03.964Z,2.60
2022-10-03T16:59:59.003Z,2.45
2022-10-03T17:05:07.248Z,2.10
2022-10-03T17:10:03.929Z,2.30
2022-10-03T17:14:58.492Z,2.88
2022-10-03T17:19:59.143Z,2.25
2022-10-03T17:25:30.886Z,2.78
2022-10-03T17:30:52.633Z,10.27
2022-10-03T17:36:39.217Z,19.80
2022-10-03T17:41:59.763Z,25.20
2022-10-03T17:47:01.428Z,24.23
2022-10-03T17:51:56.785Z,23.83
2022-10-03T17:56:54.228Z,23.52
2022-10-03T18:01:53.542Z,23.50
2022-10-03T18:06:57.451Z,21.75
2022-10-03T18:11:59.832Z,22.23
2022-10-03T18:17:01.394Z,21.55
2022-10-03T18:22:05.132Z,20.37
2022-10-03T18:27:21.554Z,21.92
2022-10-03T18:32:33.433Z,19.58
2022-10-03T18:37:28.905Z,18.98
2022-10-03T18:42:27.969Z,17.85
2022-10-03T18:47:26.141Z,17.38
2022-10-03T18:52:29.147Z,17.05
2022-10-03T18:57:39.801Z,14.70
2022-10-03T19:02:41.029Z,14.10
2022-10-03T19:07:35.575Z,13.63
2022-10-03T19:12:40.056Z,13.55
2022-10-03T19:18:02.425Z,11.95
2022-10-03T19:22:59.963Z,12.17
2022-10-03T19:28:03.081Z,10.25
2022-10-03T19:33:20.332Z,10.13
2022-10-03T19:38:24.725Z,9.70
2022-10-03T19:43:20.086Z,10.02
2022-10-03T19:48:14.517Z,10.77
2022-10-03T19:53:18.854Z,10.32
2022-10-03T19:58:19.030Z,9.65
2022-10-03T20:03:25.999Z,8.45
2022-10-03T20:08:50.519Z,9.23
2022-10-03T20:13:45.055Z,10.00
2022-10-03T20:18:38.809Z,9.10
2022-10-03T20:23:36.597Z,9.10
2022-10-03T20:28:42.724Z,8.82
2022-10-03T20:33:37.725Z,8.68
2022-10-03T20:39:03.985Z,8.40
2022-10-03T20:44:05.313Z,8.95
2022-10-03T20:49:14.094Z,8.75
2022-10-03T20:54:13.400Z,9.13
2022-10-03T20:59:09.009Z,8.35
2022-10-03T21:04:07.845Z,8.05
2022-10-03T21:09:07.096Z,8.63
2022-10-03T21:14:04.616Z,8.13
2022-10-03T21:19:09.976Z,8.30
2022-10-03T21:24:34.780Z,9.00
2022-10-03T21:29:38.585Z,8.32
2022-10-03T21:34:34.447Z,8.15
2022-10-03T21:39:32.463Z,7.80
2022-10-03T21:45:02.260Z,7.78
2022-10-03T21:49:58.471Z,7.90
2022-10-03T21:54:51.831Z,7.95
2022-10-03T22:05:24.879Z,7.75
2022-10-03T22:10:39.142Z,7.60
2022-10-03T22:15:47.196Z,7.03
2022-10-03T22:20:58.325Z,7.30
2022-10-03T22:26:19.162Z,7.97
2022-10-03T22:31:12.566Z,7.50
2022-10-03T22:36:11.237Z,7.03
2022-10-03T22:41:14.743Z,7.30
2022-10-03T22:46:09.094Z,6.60
2022-10-03T22:51:03.627Z,7.50
2022-10-03T22:56:00.521Z,6.40
2022-10-03T23:00:56.747Z,6.80
2022-10-03T23:06:08.212Z,6.15
2022-10-03T23:11:05.032Z,6.20
2022-10-03T23:16:09.330Z,6.88
2022-10-03T23:21:02.717Z,6.35
2022-10-03T23:26:27.745Z,6.90
2022-10-03T23:31:48.853Z,7.35
2022-10-03T23:37:01.432Z,6.35
2022-10-03T23:42:01.626Z,6.63
2022-10-03T23:46:55.181Z,6.32
2022-10-03T23:51:48.856Z,5.93
2022-10-03T23:57:05.634Z,6.10
